ARCT2: Red River, ARthur City

                                SHEF ID:       ARCT2     Red River at Arthur City, TX
STATION TYPE: Stream Gauge
Regulating: Stage = 27.00, Flow = 84609

PRECIP ELEVATION STAGE STAGE(2) RIV-FLOW BAT-LOAD
in ft ft ft cfs volt
Ccp-Rev Ccp-Rev Ccp-Rev Ccp-Rev Ccp-Rev Ccp-Rev
(America/Chicago)
03/28 00:00 0.00 ---- 3.93 ---- 912 12.49
03/28 01:00 0.00 ---- 3.96 ---- 937 12.41
03/28 02:00 0.00 ---- 3.95 ---- 929 12.41
03/28 03:00 0.00 ---- 3.94 ---- 920 12.41
03/28 04:00 0.00 ---- 3.92 ---- 903 12.41
03/28 05:00 0.00 ---- 3.80 ---- 805 12.41
03/28 06:00 0.01 ---- 3.82 ---- 821 12.33
03/28 07:00 0.00 ---- 3.87 ---- 862 12.33
03/28 08:00 0.00 ---- 3.90 ---- 887 12.33
03/28 09:00 0.00 ---- 3.87 ---- 862 12.73
03/28 10:00 0.00 ---- 3.76 ---- 774 13.37
03/28 11:00 0.00 ---- 3.78 ---- 789 13.76
03/28 12:00 0.00 ---- 3.69 ---- 720 13.84
03/28 13:00 0.00 ---- 3.70 ---- 728 13.76
03/28 14:00 0.00 ---- 3.73 ---- 751 14.00
03/28 15:00 0.00 ---- 3.73 ---- 751 14.08
03/28 16:00 0.00 ---- 3.67 ---- 705 13.92
03/28 17:00 0.00 ---- 3.69 ---- 720 13.92
03/28 18:00 0.00 ---- 3.74 ---- 758 13.68
03/28 19:00 0.00 ---- 3.66 ---- 698 13.60
03/28 20:00 0.00 ---- 3.74 ---- 758 13.29
03/28 21:00 0.00 ---- 3.73 ---- 751 12.73
03/28 22:00 0.00 ---- 3.72 ---- 743 12.57
03/28 23:00 0.00 ---- 3.71 ---- 735 12.57
Data processed at Sun 29Mar2026 04:30 GMT

NOTICE: If you are parsing this page

Please convert to using our Data API. Starting early 2026 we will be migrating to: https://water.usace.army.mil with modern pages rendered in JavaScript. When this migration completes you will no longer be able to scrape this page! CWMSDataAPI (CDA)

Timeseries IDs (TSIDs)

TSIDs used from left to right in the data table
ARTH.Precip-Inc.Total.1Hour.1Hour.Ccp-Rev
ARTH.Stage.Inst.1Hour.0.Ccp-Rev
ARTH.Stage-Alt.Inst.1Hour.0.Ccp-Rev
ARTH.Flow.Inst.1Hour.0.Ccp-Rev
ARTH.Volt-Battery Load.Inst.1Hour.0.Ccp-Rev

                            

All information presented herein is the property of the government of the United States of America and may be revised or deleted at any time without prior notice. Dissemination of this information without the expressed written consent of the Public Affairs Office, Tulsa District U.S. Army Corps of Engineers is strictly prohibited. These data are gathered electronically and, as presented, have NOT undergone any form of quality control. These data are NOT guaranteed to be valid or correct.